sensor_id;sensor_type;location;lat;lon;timestamp;P1;durP1;ratioP1;P2;durP2;ratioP2
6292;SDS011;3179;54.350;10.102;2022-12-29T00:01:36;2.03;;;1.93;;
6292;SDS011;3179;54.350;10.102;2022-12-29T00:04:04;5.93;;;2.03;;
6292;SDS011;3179;54.350;10.102;2022-12-29T00:06:31;2.10;;;1.90;;
6292;SDS011;3179;54.350;10.102;2022-12-29T00:08:58;2.73;;;2.00;;
6292;SDS011;3179;54.350;10.102;2022-12-29T00:11:26;2.27;;;2.13;;
6292;SDS011;3179;54.350;10.102;2022-12-29T00:13:58;2.70;;;2.23;;
6292;SDS011;3179;54.350;10.102;2022-12-29T00:16:43;2.30;;;2.20;;
6292;SDS011;3179;54.350;10.102;2022-12-29T00:19:11;2.47;;;2.27;;
6292;SDS011;3179;54.350;10.102;2022-12-29T00:21:53;2.63;;;2.43;;
6292;SDS011;3179;54.350;10.102;2022-12-29T00:24:37;2.67;;;2.47;;
6292;SDS011;3179;54.350;10.102;2022-12-29T00:27:21;3.23;;;2.97;;
6292;SDS011;3179;54.350;10.102;2022-12-29T00:30:09;2.80;;;2.60;;
6292;SDS011;3179;54.350;10.102;2022-12-29T00:32:54;3.37;;;2.40;;
6292;SDS011;3179;54.350;10.102;2022-12-29T00:35:39;2.37;;;2.27;;
6292;SDS011;3179;54.350;10.102;2022-12-29T00:38:10;3.03;;;2.40;;
6292;SDS011;3179;54.350;10.102;2022-12-29T00:40:55;2.93;;;2.73;;
6292;SDS011;3179;54.350;10.102;2022-12-29T00:43:40;2.70;;;2.50;;
6292;SDS011;3179;54.350;10.102;2022-12-29T00:46:26;2.80;;;2.60;;
6292;SDS011;3179;54.350;10.102;2022-12-29T00:48:54;3.70;;;3.40;;
6292;SDS011;3179;54.350;10.102;2022-12-29T00:51:38;3.87;;;3.37;;
6292;SDS011;3179;54.350;10.102;2022-12-29T00:54:06;4.23;;;3.83;;
6292;SDS011;3179;54.350;10.102;2022-12-29T00:56:32;3.00;;;2.73;;
6292;SDS011;3179;54.350;10.102;2022-12-29T00:58:59;3.10;;;2.90;;
6292;SDS011;3179;54.350;10.102;2022-12-29T01:01:28;3.47;;;3.07;;
6292;SDS011;3179;54.350;10.102;2022-12-29T01:03:55;3.40;;;3.10;;
6292;SDS011;3179;54.350;10.102;2022-12-29T01:06:22;4.43;;;3.27;;
6292;SDS011;3179;54.350;10.102;2022-12-29T01:08:50;4.27;;;3.63;;
6292;SDS011;3179;54.350;10.102;2022-12-29T01:11:37;4.33;;;3.30;;
6292;SDS011;3179;54.350;10.102;2022-12-29T01:14:04;4.90;;;3.50;;
6292;SDS011;3179;54.350;10.102;2022-12-29T01:16:32;3.57;;;3.33;;
6292;SDS011;3179;54.350;10.102;2022-12-29T01:19:01;3.97;;;3.67;;
6292;SDS011;3179;54.350;10.102;2022-12-29T01:21:28;3.63;;;3.33;;
6292;SDS011;3179;54.350;10.102;2022-12-29T01:23:55;8.70;;;4.30;;
6292;SDS011;3179;54.350;10.102;2022-12-29T01:26:27;3.77;;;3.47;;
6292;SDS011;3179;54.350;10.102;2022-12-29T01:28:57;5.30;;;4.30;;
6292;SDS011;3179;54.350;10.102;2022-12-29T01:31:25;6.40;;;4.10;;
6292;SDS011;3179;54.350;10.102;2022-12-29T01:33:54;4.80;;;4.40;;
6292;SDS011;3179;54.350;10.102;2022-12-29T01:36:21;4.40;;;4.07;;
6292;SDS011;3179;54.350;10.102;2022-12-29T01:38:48;5.60;;;5.00;;
6292;SDS011;3179;54.350;10.102;2022-12-29T01:41:16;4.57;;;4.17;;
6292;SDS011;3179;54.350;10.102;2022-12-29T01:43:43;4.57;;;4.17;;
6292;SDS011;3179;54.350;10.102;2022-12-29T01:46:13;7.13;;;4.60;;
6292;SDS011;3179;54.350;10.102;2022-12-29T01:48:49;9.70;;;5.07;;
6292;SDS011;3179;54.350;10.102;2022-12-29T01:51:20;4.60;;;4.30;;
6292;SDS011;3179;54.350;10.102;2022-12-29T01:53:48;4.80;;;4.40;;
6292;SDS011;3179;54.350;10.102;2022-12-29T01:56:17;4.40;;;4.10;;
6292;SDS011;3179;54.350;10.102;2022-12-29T01:58:47;4.77;;;4.40;;
6292;SDS011;3179;54.350;10.102;2022-12-29T02:01:19;5.20;;;4.77;;
6292;SDS011;3179;54.350;10.102;2022-12-29T02:03:47;5.80;;;4.90;;
6292;SDS011;3179;54.350;10.102;2022-12-29T02:06:18;4.83;;;4.47;;
6292;SDS011;3179;54.350;10.102;2022-12-29T02:08:52;4.20;;;3.90;;
6292;SDS011;3179;54.350;10.102;2022-12-29T02:11:21;4.50;;;4.10;;
6292;SDS011;3179;54.350;10.102;2022-12-29T02:13:51;4.70;;;4.30;;
6292;SDS011;3179;54.350;10.102;2022-12-29T02:16:26;5.00;;;4.70;;
6292;SDS011;3179;54.350;10.102;2022-12-29T02:19:12;4.70;;;4.40;;
6292;SDS011;3179;54.350;10.102;2022-12-29T02:22:06;5.83;;;5.30;;
6292;SDS011;3179;54.350;10.102;2022-12-29T02:24:47;5.43;;;4.70;;
6292;SDS011;3179;54.350;10.102;2022-12-29T02:30:47;4.30;;;4.00;;
6292;SDS011;3179;54.350;10.102;2022-12-29T02:33:32;4.93;;;4.53;;
6292;SDS011;3179;54.350;10.102;2022-12-29T02:36:09;6.20;;;4.47;;
6292;SDS011;3179;54.350;10.102;2022-12-29T02:38:49;5.43;;;4.93;;
6292;SDS011;3179;54.350;10.102;2022-12-29T02:41:27;5.23;;;4.83;;
6292;SDS011;3179;54.350;10.102;2022-12-29T02:43:59;4.47;;;4.10;;
6292;SDS011;3179;54.350;10.102;2022-12-29T02:46:34;4.70;;;4.40;;
6292;SDS011;3179;54.350;10.102;2022-12-29T02:49:06;4.80;;;4.50;;
6292;SDS011;3179;54.350;10.102;2022-12-29T02:51:39;5.47;;;5.07;;
6292;SDS011;3179;54.350;10.102;2022-12-29T02:54:10;5.27;;;4.73;;
6292;SDS011;3179;54.350;10.102;2022-12-29T02:56:55;4.83;;;4.43;;
6292;SDS011;3179;54.350;10.102;2022-12-29T02:59:21;4.50;;;4.10;;
6292;SDS011;3179;54.350;10.102;2022-12-29T03:04:51;4.07;;;3.77;;
6292;SDS011;3179;54.350;10.102;2022-12-29T03:07:38;6.00;;;5.50;;
6292;SDS011;3179;54.350;10.102;2022-12-29T03:10:15;4.50;;;4.10;;
6292;SDS011;3179;54.350;10.102;2022-12-29T03:12:49;5.57;;;5.07;;
6292;SDS011;3179;54.350;10.102;2022-12-29T03:15:39;5.60;;;5.10;;
6292;SDS011;3179;54.350;10.102;2022-12-29T03:18:30;7.73;;;5.00;;
6292;SDS011;3179;54.350;10.102;2022-12-29T03:21:06;4.87;;;4.47;;
6292;SDS011;3179;54.350;10.102;2022-12-29T03:23:37;4.40;;;4.10;;
6292;SDS011;3179;54.350;10.102;2022-12-29T03:26:08;5.73;;;5.23;;
6292;SDS011;3179;54.350;10.102;2022-12-29T03:28:38;6.00;;;5.50;;
6292;SDS011;3179;54.350;10.102;2022-12-29T03:31:11;5.63;;;5.10;;
6292;SDS011;3179;54.350;10.102;2022-12-29T03:33:41;4.57;;;4.27;;
6292;SDS011;3179;54.350;10.102;2022-12-29T03:36:10;5.60;;;5.20;;
6292;SDS011;3179;54.350;10.102;2022-12-29T03:38:43;5.40;;;4.80;;
6292;SDS011;3179;54.350;10.102;2022-12-29T03:41:14;5.70;;;4.60;;
6292;SDS011;3179;54.350;10.102;2022-12-29T03:43:45;5.90;;;5.40;;
6292;SDS011;3179;54.350;10.102;2022-12-29T03:46:12;5.93;;;5.53;;
6292;SDS011;3179;54.350;10.102;2022-12-29T03:48:41;5.03;;;4.63;;
6292;SDS011;3179;54.350;10.102;2022-12-29T03:51:07;5.83;;;5.23;;
6292;SDS011;3179;54.350;10.102;2022-12-29T03:53:34;7.50;;;4.87;;
6292;SDS011;3179;54.350;10.102;2022-12-29T03:56:01;5.90;;;5.40;;
6292;SDS011;3179;54.350;10.102;2022-12-29T03:58:29;6.40;;;5.90;;
6292;SDS011;3179;54.350;10.102;2022-12-29T04:00:56;5.93;;;5.43;;
6292;SDS011;3179;54.350;10.102;2022-12-29T04:03:23;6.60;;;5.97;;
6292;SDS011;3179;54.350;10.102;2022-12-29T04:05:51;6.07;;;5.57;;
6292;SDS011;3179;54.350;10.102;2022-12-29T04:08:17;5.80;;;5.30;;
6292;SDS011;3179;54.350;10.102;2022-12-29T04:10:44;5.40;;;4.90;;
6292;SDS011;3179;54.350;10.102;2022-12-29T04:13:11;5.43;;;5.03;;
6292;SDS011;3179;54.350;10.102;2022-12-29T04:15:38;5.17;;;4.67;;
6292;SDS011;3179;54.350;10.102;2022-12-29T04:18:04;5.20;;;4.00;;
6292;SDS011;3179;54.350;10.102;2022-12-29T04:20:31;5.37;;;4.97;;
6292;SDS011;3179;54.350;10.102;2022-12-29T04:23:17;9.13;;;5.83;;
6292;SDS011;3179;54.350;10.102;2022-12-29T04:25:44;5.03;;;4.67;;
6292;SDS011;3179;54.350;10.102;2022-12-29T04:28:12;6.23;;;5.63;;
6292;SDS011;3179;54.350;10.102;2022-12-29T04:30:39;5.23;;;4.70;;
6292;SDS011;3179;54.350;10.102;2022-12-29T04:33:05;5.50;;;5.00;;
6292;SDS011;3179;54.350;10.102;2022-12-29T04:35:32;5.63;;;5.13;;
6292;SDS011;3179;54.350;10.102;2022-12-29T04:37:59;6.23;;;5.63;;
6292;SDS011;3179;54.350;10.102;2022-12-29T04:40:27;5.17;;;4.77;;
6292;SDS011;3179;54.350;10.102;2022-12-29T04:42:54;5.33;;;4.93;;
6292;SDS011;3179;54.350;10.102;2022-12-29T04:45:21;5.10;;;4.80;;
6292;SDS011;3179;54.350;10.102;2022-12-29T04:47:47;5.03;;;4.63;;
6292;SDS011;3179;54.350;10.102;2022-12-29T04:50:14;5.03;;;4.63;;
6292;SDS011;3179;54.350;10.102;2022-12-29T04:52:41;5.87;;;5.37;;
6292;SDS011;3179;54.350;10.102;2022-12-29T04:55:08;4.93;;;4.53;;
6292;SDS011;3179;54.350;10.102;2022-12-29T04:57:36;4.57;;;4.23;;
6292;SDS011;3179;54.350;10.102;2022-12-29T05:00:03;5.27;;;4.87;;
6292;SDS011;3179;54.350;10.102;2022-12-29T05:02:31;4.43;;;4.03;;
6292;SDS011;3179;54.350;10.102;2022-12-29T05:04:58;5.90;;;4.40;;
6292;SDS011;3179;54.350;10.102;2022-12-29T05:07:25;4.50;;;4.20;;
6292;SDS011;3179;54.350;10.102;2022-12-29T05:09:51;4.83;;;4.40;;
6292;SDS011;3179;54.350;10.102;2022-12-29T05:12:18;4.23;;;3.93;;
6292;SDS011;3179;54.350;10.102;2022-12-29T05:14:46;4.17;;;3.77;;
6292;SDS011;3179;54.350;10.102;2022-12-29T05:17:13;3.70;;;3.50;;
6292;SDS011;3179;54.350;10.102;2022-12-29T05:19:40;4.63;;;4.33;;
6292;SDS011;3179;54.350;10.102;2022-12-29T05:22:06;6.30;;;4.30;;
6292;SDS011;3179;54.350;10.102;2022-12-29T05:24:33;4.13;;;3.80;;
6292;SDS011;3179;54.350;10.102;2022-12-29T05:27:00;5.13;;;4.20;;
6292;SDS011;3179;54.350;10.102;2022-12-29T05:29:27;5.17;;;4.50;;
6292;SDS011;3179;54.350;10.102;2022-12-29T05:31:55;5.73;;;5.33;;
6292;SDS011;3179;54.350;10.102;2022-12-29T05:34:21;4.43;;;4.13;;
6292;SDS011;3179;54.350;10.102;2022-12-29T05:36:48;5.37;;;4.90;;
6292;SDS011;3179;54.350;10.102;2022-12-29T05:39:15;4.53;;;4.13;;
6292;SDS011;3179;54.350;10.102;2022-12-29T05:41:42;4.60;;;4.20;;
6292;SDS011;3179;54.350;10.102;2022-12-29T05:44:09;3.90;;;3.60;;
6292;SDS011;3179;54.350;10.102;2022-12-29T05:46:36;3.83;;;3.53;;
6292;SDS011;3179;54.350;10.102;2022-12-29T05:49:05;3.73;;;3.47;;
6292;SDS011;3179;54.350;10.102;2022-12-29T05:51:32;3.80;;;3.50;;
6292;SDS011;3179;54.350;10.102;2022-12-29T05:53:58;3.93;;;3.17;;
6292;SDS011;3179;54.350;10.102;2022-12-29T05:56:25;3.43;;;3.13;;
6292;SDS011;3179;54.350;10.102;2022-12-29T05:58:52;3.90;;;3.60;;
6292;SDS011;3179;54.350;10.102;2022-12-29T06:01:19;3.13;;;2.87;;
6292;SDS011;3179;54.350;10.102;2022-12-29T06:03:45;3.20;;;3.00;;
6292;SDS011;3179;54.350;10.102;2022-12-29T06:06:13;2.60;;;2.50;;
6292;SDS011;3179;54.350;10.102;2022-12-29T06:08:41;3.53;;;2.77;;
6292;SDS011;3179;54.350;10.102;2022-12-29T06:11:07;2.50;;;2.30;;
6292;SDS011;3179;54.350;10.102;2022-12-29T06:13:34;2.40;;;2.30;;
6292;SDS011;3179;54.350;10.102;2022-12-29T06:16:01;2.60;;;2.40;;
6292;SDS011;3179;54.350;10.102;2022-12-29T06:18:28;1.70;;;1.70;;
6292;SDS011;3179;54.350;10.102;2022-12-29T06:20:58;4.00;;;2.30;;
6292;SDS011;3179;54.350;10.102;2022-12-29T06:23:27;2.00;;;1.90;;
6292;SDS011;3179;54.350;10.102;2022-12-29T06:25:54;1.70;;;1.57;;
6292;SDS011;3179;54.350;10.102;2022-12-29T06:28:21;2.30;;;1.87;;
6292;SDS011;3179;54.350;10.102;2022-12-29T06:30:47;3.67;;;2.03;;
6292;SDS011;3179;54.350;10.102;2022-12-29T06:33:14;2.10;;;1.87;;
6292;SDS011;3179;54.350;10.102;2022-12-29T06:35:42;2.00;;;1.90;;
6292;SDS011;3179;54.350;10.102;2022-12-29T06:38:10;1.77;;;1.67;;
6292;SDS011;3179;54.350;10.102;2022-12-29T06:40:39;1.70;;;1.60;;
6292;SDS011;3179;54.350;10.102;2022-12-29T06:43:07;1.93;;;1.77;;
6292;SDS011;3179;54.350;10.102;2022-12-29T06:45:34;2.30;;;1.97;;
6292;SDS011;3179;54.350;10.102;2022-12-29T06:48:02;1.60;;;1.50;;
6292;SDS011;3179;54.350;10.102;2022-12-29T06:50:29;1.50;;;1.40;;
6292;SDS011;3179;54.350;10.102;2022-12-29T06:52:56;1.87;;;1.77;;
6292;SDS011;3179;54.350;10.102;2022-12-29T06:55:22;1.70;;;1.60;;
6292;SDS011;3179;54.350;10.102;2022-12-29T06:57:50;2.70;;;2.13;;
6292;SDS011;3179;54.350;10.102;2022-12-29T07:00:20;1.93;;;1.83;;
6292;SDS011;3179;54.350;10.102;2022-12-29T07:02:47;1.90;;;1.80;;
6292;SDS011;3179;54.350;10.102;2022-12-29T07:05:14;3.23;;;2.10;;
6292;SDS011;3179;54.350;10.102;2022-12-29T07:07:40;1.90;;;1.80;;
6292;SDS011;3179;54.350;10.102;2022-12-29T07:10:07;2.00;;;1.90;;
6292;SDS011;3179;54.350;10.102;2022-12-29T07:12:34;1.80;;;1.70;;
6292;SDS011;3179;54.350;10.102;2022-12-29T07:15:02;2.10;;;2.00;;
6292;SDS011;3179;54.350;10.102;2022-12-29T07:17:29;1.70;;;1.60;;
6292;SDS011;3179;54.350;10.102;2022-12-29T07:19:56;2.40;;;2.13;;
6292;SDS011;3179;54.350;10.102;2022-12-29T07:22:23;2.00;;;1.87;;
6292;SDS011;3179;54.350;10.102;2022-12-29T07:24:50;3.00;;;1.90;;
6292;SDS011;3179;54.350;10.102;2022-12-29T07:27:16;1.80;;;1.70;;
6292;SDS011;3179;54.350;10.102;2022-12-29T07:29:43;1.77;;;1.67;;
6292;SDS011;3179;54.350;10.102;2022-12-29T07:32:11;2.37;;;2.00;;
6292;SDS011;3179;54.350;10.102;2022-12-29T07:34:38;1.87;;;1.77;;
6292;SDS011;3179;54.350;10.102;2022-12-29T07:37:05;3.23;;;2.53;;
6292;SDS011;3179;54.350;10.102;2022-12-29T07:39:32;3.33;;;1.50;;
6292;SDS011;3179;54.350;10.102;2022-12-29T07:41:59;1.37;;;1.27;;
6292;SDS011;3179;54.350;10.102;2022-12-29T07:44:25;1.80;;;1.50;;
6292;SDS011;3179;54.350;10.102;2022-12-29T07:46:52;3.63;;;1.37;;
6292;SDS011;3179;54.350;10.102;2022-12-29T07:49:20;1.80;;;1.40;;
6292;SDS011;3179;54.350;10.102;2022-12-29T07:51:47;1.90;;;1.50;;
6292;SDS011;3179;54.350;10.102;2022-12-29T07:54:14;1.43;;;1.33;;
6292;SDS011;3179;54.350;10.102;2022-12-29T07:56:43;1.77;;;1.67;;
6292;SDS011;3179;54.350;10.102;2022-12-29T07:59:10;2.10;;;1.40;;
6292;SDS011;3179;54.350;10.102;2022-12-29T08:01:37;1.33;;;1.23;;
6292;SDS011;3179;54.350;10.102;2022-12-29T08:04:04;1.47;;;1.23;;
6292;SDS011;3179;54.350;10.102;2022-12-29T08:06:32;1.57;;;1.27;;
6292;SDS011;3179;54.350;10.102;2022-12-29T08:08:59;1.57;;;1.43;;
6292;SDS011;3179;54.350;10.102;2022-12-29T08:11:26;2.13;;;1.23;;
6292;SDS011;3179;54.350;10.102;2022-12-29T08:13:53;2.40;;;1.17;;
6292;SDS011;3179;54.350;10.102;2022-12-29T08:16:20;6.80;;;1.17;;
6292;SDS011;3179;54.350;10.102;2022-12-29T08:18:51;4.70;;;1.50;;
6292;SDS011;3179;54.350;10.102;2022-12-29T08:21:18;5.67;;;1.40;;
6292;SDS011;3179;54.350;10.102;2022-12-29T08:23:46;2.43;;;1.20;;
6292;SDS011;3179;54.350;10.102;2022-12-29T08:26:13;5.50;;;1.53;;
6292;SDS011;3179;54.350;10.102;2022-12-29T08:28:40;1.30;;;0.70;;
6292;SDS011;3179;54.350;10.102;2022-12-29T08:31:07;5.43;;;1.30;;
6292;SDS011;3179;54.350;10.102;2022-12-29T08:33:34;4.03;;;1.37;;
6292;SDS011;3179;54.350;10.102;2022-12-29T08:36:01;2.70;;;1.00;;
6292;SDS011;3179;54.350;10.102;2022-12-29T08:38:29;2.03;;;1.30;;
6292;SDS011;3179;54.350;10.102;2022-12-29T08:40:58;2.20;;;1.20;;
6292;SDS011;3179;54.350;10.102;2022-12-29T08:43:26;3.63;;;1.00;;
6292;SDS011;3179;54.350;10.102;2022-12-29T08:45:53;2.73;;;0.87;;
6292;SDS011;3179;54.350;10.102;2022-12-29T08:48:19;4.33;;;1.40;;
6292;SDS011;3179;54.350;10.102;2022-12-29T08:50:47;2.73;;;1.20;;
6292;SDS011;3179;54.350;10.102;2022-12-29T08:53:14;6.73;;;1.30;;
6292;SDS011;3179;54.350;10.102;2022-12-29T08:55:41;7.70;;;1.27;;
6292;SDS011;3179;54.350;10.102;2022-12-29T08:58:09;7.60;;;1.50;;
6292;SDS011;3179;54.350;10.102;2022-12-29T09:00:39;5.73;;;1.60;;
6292;SDS011;3179;54.350;10.102;2022-12-29T09:03:06;4.87;;;1.77;;
6292;SDS011;3179;54.350;10.102;2022-12-29T09:05:33;2.80;;;0.93;;
6292;SDS011;3179;54.350;10.102;2022-12-29T09:07:59;2.17;;;1.23;;
6292;SDS011;3179;54.350;10.102;2022-12-29T09:10:26;3.47;;;1.20;;
6292;SDS011;3179;54.350;10.102;2022-12-29T09:12:53;1.30;;;1.20;;
6292;SDS011;3179;54.350;10.102;2022-12-29T09:15:21;5.30;;;1.30;;
6292;SDS011;3179;54.350;10.102;2022-12-29T09:17:48;8.47;;;1.63;;
6292;SDS011;3179;54.350;10.102;2022-12-29T09:20:15;6.17;;;1.90;;
6292;SDS011;3179;54.350;10.102;2022-12-29T09:22:44;4.23;;;1.10;;
6292;SDS011;3179;54.350;10.102;2022-12-29T09:25:12;3.03;;;1.37;;
6292;SDS011;3179;54.350;10.102;2022-12-29T09:27:38;6.47;;;1.30;;
6292;SDS011;3179;54.350;10.102;2022-12-29T09:30:06;6.10;;;1.30;;
6292;SDS011;3179;54.350;10.102;2022-12-29T09:32:36;5.57;;;1.40;;
6292;SDS011;3179;54.350;10.102;2022-12-29T09:35:05;7.03;;;1.67;;
6292;SDS011;3179;54.350;10.102;2022-12-29T09:37:32;4.73;;;1.30;;
6292;SDS011;3179;54.350;10.102;2022-12-29T09:39:59;9.20;;;1.27;;
6292;SDS011;3179;54.350;10.102;2022-12-29T09:42:27;3.90;;;1.20;;
6292;SDS011;3179;54.350;10.102;2022-12-29T09:45:03;7.20;;;1.70;;
6292;SDS011;3179;54.350;10.102;2022-12-29T09:47:37;7.30;;;1.60;;
6292;SDS011;3179;54.350;10.102;2022-12-29T09:50:07;4.07;;;1.60;;
6292;SDS011;3179;54.350;10.102;2022-12-29T09:52:42;4.90;;;1.60;;
6292;SDS011;3179;54.350;10.102;2022-12-29T09:55:13;4.17;;;1.50;;
6292;SDS011;3179;54.350;10.102;2022-12-29T09:57:44;7.43;;;1.50;;
6292;SDS011;3179;54.350;10.102;2022-12-29T10:00:14;7.93;;;1.93;;
6292;SDS011;3179;54.350;10.102;2022-12-29T10:02:46;2.40;;;1.20;;
6292;SDS011;3179;54.350;10.102;2022-12-29T10:05:24;6.43;;;1.70;;
6292;SDS011;3179;54.350;10.102;2022-12-29T10:08:00;7.77;;;1.57;;
6292;SDS011;3179;54.350;10.102;2022-12-29T10:10:38;5.50;;;1.70;;
6292;SDS011;3179;54.350;10.102;2022-12-29T10:13:15;6.50;;;1.70;;
6292;SDS011;3179;54.350;10.102;2022-12-29T10:15:54;6.33;;;1.63;;
6292;SDS011;3179;54.350;10.102;2022-12-29T10:18:32;6.30;;;1.80;;
6292;SDS011;3179;54.350;10.102;2022-12-29T10:21:14;7.73;;;1.80;;
6292;SDS011;3179;54.350;10.102;2022-12-29T10:23:48;4.20;;;1.40;;
6292;SDS011;3179;54.350;10.102;2022-12-29T10:26:18;8.73;;;2.30;;
6292;SDS011;3179;54.350;10.102;2022-12-29T10:28:47;9.17;;;1.90;;
6292;SDS011;3179;54.350;10.102;2022-12-29T10:31:19;5.17;;;1.73;;
6292;SDS011;3179;54.350;10.102;2022-12-29T10:33:51;7.20;;;1.67;;
6292;SDS011;3179;54.350;10.102;2022-12-29T10:36:24;6.60;;;2.30;;
6292;SDS011;3179;54.350;10.102;2022-12-29T10:38:58;9.00;;;2.57;;
6292;SDS011;3179;54.350;10.102;2022-12-29T10:41:32;5.30;;;1.93;;
6292;SDS011;3179;54.350;10.102;2022-12-29T10:44:03;6.67;;;1.50;;
6292;SDS011;3179;54.350;10.102;2022-12-29T10:46:32;8.83;;;1.83;;
6292;SDS011;3179;54.350;10.102;2022-12-29T10:49:04;5.13;;;1.60;;
6292;SDS011;3179;54.350;10.102;2022-12-29T10:51:33;4.43;;;1.90;;
6292;SDS011;3179;54.350;10.102;2022-12-29T10:54:04;4.97;;;1.57;;
6292;SDS011;3179;54.350;10.102;2022-12-29T10:56:38;11.10;;;2.27;;
6292;SDS011;3179;54.350;10.102;2022-12-29T10:59:10;7.07;;;1.97;;
6292;SDS011;3179;54.350;10.102;2022-12-29T11:01:46;14.10;;;2.13;;
6292;SDS011;3179;54.350;10.102;2022-12-29T11:04:27;6.63;;;1.20;;
6292;SDS011;3179;54.350;10.102;2022-12-29T11:07:06;7.73;;;1.70;;
6292;SDS011;3179;54.350;10.102;2022-12-29T11:09:37;11.23;;;2.60;;
6292;SDS011;3179;54.350;10.102;2022-12-29T11:15:11;9.30;;;1.77;;
6292;SDS011;3179;54.350;10.102;2022-12-29T11:17:43;6.63;;;1.87;;
6292;SDS011;3179;54.350;10.102;2022-12-29T11:20:31;6.20;;;1.47;;
6292;SDS011;3179;54.350;10.102;2022-12-29T11:23:04;3.00;;;1.40;;
6292;SDS011;3179;54.350;10.102;2022-12-29T11:25:46;5.77;;;1.60;;
6292;SDS011;3179;54.350;10.102;2022-12-29T11:28:34;8.60;;;2.17;;
6292;SDS011;3179;54.350;10.102;2022-12-29T11:31:02;7.80;;;1.63;;
6292;SDS011;3179;54.350;10.102;2022-12-29T11:33:31;5.20;;;1.70;;
6292;SDS011;3179;54.350;10.102;2022-12-29T11:36:02;10.40;;;2.10;;
6292;SDS011;3179;54.350;10.102;2022-12-29T11:38:35;5.03;;;1.63;;
6292;SDS011;3179;54.350;10.102;2022-12-29T11:41:05;6.20;;;1.73;;
6292;SDS011;3179;54.350;10.102;2022-12-29T11:43:33;5.97;;;2.23;;
6292;SDS011;3179;54.350;10.102;2022-12-29T11:46:03;5.97;;;2.10;;
6292;SDS011;3179;54.350;10.102;2022-12-29T11:48:32;8.10;;;2.03;;
6292;SDS011;3179;54.350;10.102;2022-12-29T11:51:06;9.20;;;2.43;;
6292;SDS011;3179;54.350;10.102;2022-12-29T11:53:38;6.83;;;2.57;;
6292;SDS011;3179;54.350;10.102;2022-12-29T11:56:10;9.70;;;2.63;;
6292;SDS011;3179;54.350;10.102;2022-12-29T11:58:41;7.80;;;2.40;;
6292;SDS011;3179;54.350;10.102;2022-12-29T12:01:10;5.97;;;1.90;;
6292;SDS011;3179;54.350;10.102;2022-12-29T12:03:44;7.30;;;2.03;;
6292;SDS011;3179;54.350;10.102;2022-12-29T12:06:16;3.97;;;1.97;;
6292;SDS011;3179;54.350;10.102;2022-12-29T12:08:51;8.70;;;2.50;;
6292;SDS011;3179;54.350;10.102;2022-12-29T12:11:22;7.37;;;2.73;;
6292;SDS011;3179;54.350;10.102;2022-12-29T12:13:58;10.67;;;2.30;;
6292;SDS011;3179;54.350;10.102;2022-12-29T12:16:30;7.33;;;1.87;;
6292;SDS011;3179;54.350;10.102;2022-12-29T12:19:02;10.53;;;2.00;;
6292;SDS011;3179;54.350;10.102;2022-12-29T12:21:40;8.67;;;2.20;;
6292;SDS011;3179;54.350;10.102;2022-12-29T12:24:22;7.90;;;2.33;;
6292;SDS011;3179;54.350;10.102;2022-12-29T12:27:02;5.23;;;1.40;;
6292;SDS011;3179;54.350;10.102;2022-12-29T12:29:36;8.47;;;1.70;;
6292;SDS011;3179;54.350;10.102;2022-12-29T12:32:10;7.90;;;2.20;;
6292;SDS011;3179;54.350;10.102;2022-12-29T12:34:41;5.77;;;1.93;;
6292;SDS011;3179;54.350;10.102;2022-12-29T12:37:15;9.77;;;1.60;;
6292;SDS011;3179;54.350;10.102;2022-12-29T12:40:03;12.70;;;2.30;;
6292;SDS011;3179;54.350;10.102;2022-12-29T12:42:47;5.97;;;2.40;;
6292;SDS011;3179;54.350;10.102;2022-12-29T12:45:26;7.20;;;2.20;;
6292;SDS011;3179;54.350;10.102;2022-12-29T12:48:16;11.67;;;2.17;;
6292;SDS011;3179;54.350;10.102;2022-12-29T12:50:55;3.80;;;1.53;;
6292;SDS011;3179;54.350;10.102;2022-12-29T12:53:35;4.80;;;1.60;;
6292;SDS011;3179;54.350;10.102;2022-12-29T12:56:22;7.70;;;1.60;;
6292;SDS011;3179;54.350;10.102;2022-12-29T12:58:59;10.57;;;1.87;;
6292;SDS011;3179;54.350;10.102;2022-12-29T13:01:35;7.40;;;1.60;;
6292;SDS011;3179;54.350;10.102;2022-12-29T13:04:22;7.10;;;1.80;;
6292;SDS011;3179;54.350;10.102;2022-12-29T13:07:07;7.10;;;1.80;;
6292;SDS011;3179;54.350;10.102;2022-12-29T13:09:48;9.33;;;3.07;;
6292;SDS011;3179;54.350;10.102;2022-12-29T13:12:29;4.77;;;1.40;;
6292;SDS011;3179;54.350;10.102;2022-12-29T13:15:07;3.10;;;1.80;;
6292;SDS011;3179;54.350;10.102;2022-12-29T13:17:42;7.33;;;1.60;;
6292;SDS011;3179;54.350;10.102;2022-12-29T13:20:18;5.20;;;1.43;;
6292;SDS011;3179;54.350;10.102;2022-12-29T13:22:53;12.03;;;2.37;;
6292;SDS011;3179;54.350;10.102;2022-12-29T13:25:29;8.47;;;1.70;;
6292;SDS011;3179;54.350;10.102;2022-12-29T13:28:04;3.93;;;1.63;;
6292;SDS011;3179;54.350;10.102;2022-12-29T13:30:44;10.90;;;1.80;;
6292;SDS011;3179;54.350;10.102;2022-12-29T13:33:19;4.60;;;1.37;;
6292;SDS011;3179;54.350;10.102;2022-12-29T13:35:53;6.20;;;1.60;;
6292;SDS011;3179;54.350;10.102;2022-12-29T13:38:26;2.80;;;1.33;;
6292;SDS011;3179;54.350;10.102;2022-12-29T13:41:01;4.30;;;1.63;;
6292;SDS011;3179;54.350;10.102;2022-12-29T13:43:31;5.57;;;1.60;;
6292;SDS011;3179;54.350;10.102;2022-12-29T13:46:02;4.13;;;1.40;;
6292;SDS011;3179;54.350;10.102;2022-12-29T13:48:35;3.30;;;1.43;;
6292;SDS011;3179;54.350;10.102;2022-12-29T13:51:07;4.47;;;2.00;;
6292;SDS011;3179;54.350;10.102;2022-12-29T13:53:37;7.30;;;1.70;;
6292;SDS011;3179;54.350;10.102;2022-12-29T13:56:19;6.50;;;1.63;;
6292;SDS011;3179;54.350;10.102;2022-12-29T13:58:51;6.90;;;1.70;;
6292;SDS011;3179;54.350;10.102;2022-12-29T14:01:23;11.50;;;1.90;;
6292;SDS011;3179;54.350;10.102;2022-12-29T14:03:56;8.17;;;1.90;;
6292;SDS011;3179;54.350;10.102;2022-12-29T14:06:24;8.50;;;1.93;;
6292;SDS011;3179;54.350;10.102;2022-12-29T14:08:54;11.13;;;2.10;;
6292;SDS011;3179;54.350;10.102;2022-12-29T14:11:28;8.63;;;2.07;;
6292;SDS011;3179;54.350;10.102;2022-12-29T14:13:57;7.80;;;2.37;;
6292;SDS011;3179;54.350;10.102;2022-12-29T14:16:26;11.30;;;2.30;;
6292;SDS011;3179;54.350;10.102;2022-12-29T14:19:10;13.40;;;2.93;;
6292;SDS011;3179;54.350;10.102;2022-12-29T14:21:41;13.50;;;2.67;;
6292;SDS011;3179;54.350;10.102;2022-12-29T14:24:26;9.43;;;2.40;;
6292;SDS011;3179;54.350;10.102;2022-12-29T14:33:13;11.20;;;2.40;;
6292;SDS011;3179;54.350;10.102;2022-12-29T14:35:41;13.20;;;3.00;;
6292;SDS011;3179;54.350;10.102;2022-12-29T14:38:14;14.20;;;2.97;;
6292;SDS011;3179;54.350;10.102;2022-12-29T14:40:43;12.30;;;2.80;;
6292;SDS011;3179;54.350;10.102;2022-12-29T14:43:13;11.93;;;2.00;;
6292;SDS011;3179;54.350;10.102;2022-12-29T14:45:51;14.43;;;2.63;;
6292;SDS011;3179;54.350;10.102;2022-12-29T14:51:16;10.47;;;3.17;;
6292;SDS011;3179;54.350;10.102;2022-12-29T14:53:57;9.90;;;2.43;;
6292;SDS011;3179;54.350;10.102;2022-12-29T14:56:25;9.83;;;2.20;;
6292;SDS011;3179;54.350;10.102;2022-12-29T14:58:55;6.43;;;2.00;;
6292;SDS011;3179;54.350;10.102;2022-12-29T15:01:36;7.03;;;2.17;;
6292;SDS011;3179;54.350;10.102;2022-12-29T15:04:12;11.37;;;2.10;;
6292;SDS011;3179;54.350;10.102;2022-12-29T15:06:41;11.03;;;2.73;;
6292;SDS011;3179;54.350;10.102;2022-12-29T15:09:12;10.63;;;2.53;;
6292;SDS011;3179;54.350;10.102;2022-12-29T15:11:51;9.37;;;3.13;;
6292;SDS011;3179;54.350;10.102;2022-12-29T15:14:34;13.80;;;2.50;;
6292;SDS011;3179;54.350;10.102;2022-12-29T15:17:09;9.63;;;2.57;;
6292;SDS011;3179;54.350;10.102;2022-12-29T15:19:47;12.30;;;2.77;;
6292;SDS011;3179;54.350;10.102;2022-12-29T15:22:14;12.50;;;2.80;;
6292;SDS011;3179;54.350;10.102;2022-12-29T15:24:41;13.80;;;2.63;;
6292;SDS011;3179;54.350;10.102;2022-12-29T15:27:10;9.73;;;2.47;;
6292;SDS011;3179;54.350;10.102;2022-12-29T15:29:42;9.40;;;2.77;;
6292;SDS011;3179;54.350;10.102;2022-12-29T15:32:18;7.90;;;2.70;;
6292;SDS011;3179;54.350;10.102;2022-12-29T15:34:47;13.20;;;2.80;;
6292;SDS011;3179;54.350;10.102;2022-12-29T15:37:18;11.53;;;2.63;;
6292;SDS011;3179;54.350;10.102;2022-12-29T15:39:46;9.83;;;3.03;;
6292;SDS011;3179;54.350;10.102;2022-12-29T15:42:18;11.27;;;3.07;;
6292;SDS011;3179;54.350;10.102;2022-12-29T15:45:00;11.47;;;2.33;;